Startpagina
METAR-TAF:

METAR-TAF

Vliegvelden :

Internationale luchthaven Fort McMurray

Fort McMurray, Alberta, Canada

breedte: 56-39N, lengte: 111-13W, hoogte: 369 m

Actueel weer

Dit bericht is 58 minuten geleden gemaakt, om 09:00 UTC
Wind 2 kt uit het oostzuidoosten
Temperatuur -7°C
Vochtigheid 57%
Druk 1016 hPa
Zicht: 14.5 km
Geheel bewolkt op 6000 ft

METAR: CYMM 050900Z AUTO 11002KT 9SM OVC060 M07/M14 A2999 RMK SLP183

Tijdstip: 03:58 (09:58 UTC)

Verwachting

Dit bericht is 3 uur en het 20 minuten geleden gemaakt, om 06:38 UTC
Verwachting geldig van 05 om 07 UTC tot 05 om 19 UTC
Wind 6 kt uit het oostzuidoosten
Zicht: 10 km
Gebroken wolken op 6000 ft
Van 05 om 1400 UTC
Wind 6 kt uit het oosten
Zicht: 10 km
Verspreide wolken op 6000 ft

TAF: CYMM 050638Z 0507/0519 12006KT P6SM BKN060 FM051400 10006KT P6SM SCT060 RMK FCST BASED ON AUTO OBS. NXT FCST BY 051300Z

Waarnemingen en weersverwachtingen van meer dan 4000 vliegvelden (METAR en TAF).

De beschikbare stations zijn de gele en rode punten op de kaart.

Ga met uw muis naar het station om de naam te zien.

Klik dan om waarnemingen en weersverwachtingen te zien.

kaart wijzigen: klik op de groene knoppen met een zwart kruis om in te zoomen, op de groene knop met een streepje om uit te zoomen of op de groene pijlen voor aangrenzende kaarten.


METAR-TAF: